createdAt,value
2018-09-04T00:06:43.198Z,46.5
2018-09-04T00:16:57.939Z,36.3
2018-09-04T00:27:43.344Z,52.7
2018-09-04T00:37:57.488Z,46.7
2018-09-04T00:48:11.772Z,45.0
2018-09-04T00:58:25.820Z,45.9
2018-09-04T01:09:11.579Z,62.9
2018-09-04T01:19:25.917Z,45.3
2018-09-04T01:29:40.289Z,41.5
2018-09-04T01:39:54.420Z,41.3
2018-09-04T01:50:08.631Z,42.9
2018-09-04T02:00:53.319Z,61.1
2018-09-04T02:11:07.558Z,46.4
2018-09-04T02:21:52.192Z,50.5
2018-09-04T02:32:37.031Z,63.6
2018-09-04T02:42:51.483Z,57.7
2018-09-04T02:53:05.547Z,50.7
2018-09-04T03:03:19.859Z,66.2
2018-09-04T03:13:34.230Z,60.1
2018-09-04T03:24:18.745Z,80.9
2018-09-04T03:34:32.763Z,56.6
2018-09-04T03:44:47.139Z,44.0
2018-09-04T03:55:01.256Z,41.7
2018-09-04T04:05:15.478Z,49.8
2018-09-04T04:16:01.015Z,67.4
2018-09-04T04:26:15.447Z,44.6
2018-09-04T04:37:01.145Z,60.5
2018-09-04T04:47:15.631Z,43.7
2018-09-04T04:57:27.880Z,39.4
2018-09-04T05:07:41.801Z,55.3
2018-09-04T05:18:27.447Z,69.3
2018-09-04T05:28:41.939Z,48.1
2018-09-04T05:38:56.621Z,72.4
2018-09-04T05:49:10.837Z,55.0
2018-09-04T05:59:25.334Z,63.9
2018-09-04T06:09:39.535Z,54.1
2018-09-04T06:19:53.691Z,58.4
2018-09-04T06:30:38.429Z,68.3
2018-09-04T06:40:52.445Z,52.7
2018-09-04T06:51:03.844Z,56.1
2018-09-04T07:01:18.015Z,61.9
2018-09-04T07:11:29.665Z,67.7
2018-09-04T07:21:41.785Z,43.2
2018-09-04T07:31:53.181Z,68.4
2018-09-04T07:42:08.645Z,42.8
2018-09-04T07:52:53.460Z,109.7
2018-09-04T08:03:07.405Z,55.6
2018-09-04T08:14:22.447Z,89.3
2018-09-04T08:25:08.194Z,85.0
2018-09-04T08:35:20.451Z,63.5
2018-09-04T08:46:05.025Z,77.0
2018-09-04T08:56:49.766Z,68.2
2018-09-04T09:07:34.541Z,68.1
2018-09-04T09:18:19.107Z,59.9
2018-09-04T09:28:33.781Z,60.0
2018-09-04T09:39:18.151Z,52.0
2018-09-04T09:49:32.353Z,44.3
2018-09-04T09:59:46.898Z,40.4
2018-09-04T10:09:58.942Z,35.9
2018-09-04T10:20:10.340Z,38.8
2018-09-04T10:30:24.690Z,34.2
2018-09-04T10:42:28.812Z,38.6
2018-09-04T10:52:42.459Z,34.3
2018-09-04T11:02:57.050Z,31.3
2018-09-04T11:13:10.869Z,28.4
2018-09-04T11:23:21.991Z,30.2
2018-09-04T11:33:35.311Z,30.8
2018-09-04T11:43:50.977Z,29.5
2018-09-04T11:54:04.756Z,28.9
2018-09-04T12:04:18.259Z,26.4
2018-09-04T12:14:29.864Z,27.0
2018-09-04T12:25:00.294Z,27.2
2018-09-04T12:35:12.119Z,27.1
2018-09-04T12:45:26.289Z,27.2
2018-09-04T12:55:46.071Z,25.0
2018-09-04T13:06:00.082Z,26.9
2018-09-04T13:16:14.900Z,31.4
2018-09-04T13:26:29.032Z,25.5
2018-09-04T13:36:42.746Z,26.2
2018-09-04T13:48:06.958Z,27.3
2018-09-04T14:08:37.697Z,27.5
2018-09-04T14:18:51.901Z,26.8
2018-09-04T14:29:10.299Z,26.0
2018-09-04T14:50:01.598Z,32.1
2018-09-04T15:00:16.180Z,25.5
2018-09-04T15:10:53.251Z,26.0
2018-09-04T15:21:07.344Z,31.6
2018-09-04T15:31:21.795Z,29.4
2018-09-04T15:41:35.782Z,28.8
2018-09-04T15:51:49.962Z,31.5
2018-09-04T16:02:29.028Z,29.9
2018-09-04T16:13:15.785Z,28.5
2018-09-04T16:23:29.086Z,31.3
2018-09-04T16:34:06.382Z,26.8
2018-09-04T16:44:17.696Z,27.6
2018-09-04T16:54:32.624Z,30.7
2018-09-04T17:06:06.151Z,29.7
2018-09-04T17:16:20.130Z,31.7
2018-09-04T17:26:34.460Z,31.6
2018-09-04T17:48:55.751Z,40.5
2018-09-04T17:59:09.955Z,35.2
2018-09-04T18:09:23.948Z,41.4
2018-09-04T18:20:09.750Z,37.3
2018-09-04T18:41:35.814Z,58.1
2018-09-04T18:51:51.243Z,35.8
2018-09-04T19:02:02.932Z,34.3
2018-09-04T19:12:19.330Z,34.3
2018-09-04T19:23:14.055Z,37.8
2018-09-04T19:33:28.690Z,33.0
2018-09-04T19:43:40.167Z,35.6
2018-09-04T19:53:54.300Z,37.3
2018-09-04T20:04:39.000Z,38.7
2018-09-04T20:15:22.925Z,39.4
2018-09-04T20:26:07.590Z,39.3
2018-09-04T20:36:53.290Z,55.5
2018-09-04T20:47:06.829Z,34.1
2018-09-04T20:57:20.885Z,38.2
2018-09-04T21:07:35.519Z,39.6
2018-09-04T21:17:49.611Z,37.3
2018-09-04T21:28:03.690Z,38.5
2018-09-04T21:38:18.040Z,34.4
2018-09-04T21:49:02.530Z,42.4
2018-09-04T21:59:18.442Z,32.9
2018-09-04T22:09:31.739Z,36.1
2018-09-04T22:19:45.062Z,35.2
2018-09-04T22:29:56.562Z,48.6
2018-09-04T22:40:40.982Z,45.6
2018-09-04T22:50:54.406Z,59.7
2018-09-04T23:01:08.406Z,41.3
2018-09-04T23:11:22.067Z,45.2
2018-09-04T23:21:35.944Z,46.9
2018-09-04T23:31:49.951Z,42.3
2018-09-04T23:42:03.472Z,41.1
2018-09-04T23:52:17.913Z,39.5
